createdAt,value
2022-10-28T00:06:16.551Z,100
2022-10-28T00:21:32.517Z,100
2022-10-28T00:36:48.495Z,100
2022-10-28T00:52:05.482Z,100
2022-10-28T01:07:21.448Z,100
2022-10-28T01:22:37.427Z,100
2022-10-28T01:37:54.725Z,100
2022-10-28T01:53:12.339Z,100
2022-10-28T02:08:29.390Z,100
2022-10-28T02:23:45.287Z,100
2022-10-28T02:39:01.285Z,100
2022-10-28T02:54:18.238Z,100
2022-10-28T03:09:34.249Z,100
2022-10-28T03:24:51.179Z,100
2022-10-28T03:40:08.179Z,100
2022-10-28T03:55:25.128Z,100
2022-10-28T04:10:46.278Z,100
2022-10-28T04:25:57.108Z,100
2022-10-28T04:41:13.096Z,100
2022-10-28T04:56:30.014Z,100
2022-10-28T05:11:46.051Z,100
2022-10-28T05:27:02.980Z,100
2022-10-28T05:42:19.999Z,100
2022-10-28T05:57:36.932Z,100
2022-10-28T06:12:51.789Z,100
2022-10-28T06:28:10.310Z,100
2022-10-28T06:43:23.359Z,100
2022-10-28T06:58:41.901Z,100
2022-10-28T07:13:58.831Z,100
2022-10-28T07:29:15.851Z,100
2022-10-28T07:44:31.796Z,100
2022-10-28T07:59:48.802Z,100
2022-10-28T08:15:04.729Z,100
2022-10-28T08:30:20.687Z,100
2022-10-28T08:45:36.628Z,100
2022-10-28T09:00:53.648Z,96
2022-10-28T09:16:13.645Z,87.5
2022-10-28T09:31:27.556Z,78.5
2022-10-28T09:46:43.509Z,79.5
2022-10-28T10:02:00.645Z,78
2022-10-28T10:17:16.465Z,77
2022-10-28T10:32:32.437Z,70
2022-10-28T10:47:48.404Z,64.5
2022-10-28T11:03:06.397Z,64.5
2022-10-28T11:18:23.351Z,63
2022-10-28T11:33:40.305Z,62.5
2022-10-28T11:48:52.027Z,62.5
2022-10-28T12:04:08.268Z,55.5
2022-10-28T12:19:25.257Z,54.5
2022-10-28T12:34:42.164Z,55.5
2022-10-28T12:49:59.131Z,55.5
2022-10-28T13:05:15.119Z,56.5
2022-10-28T13:20:31.112Z,62
2022-10-28T13:35:47.168Z,60
2022-10-28T13:51:04.012Z,55
2022-10-28T14:06:20.080Z,53.5
2022-10-28T14:21:37.007Z,60.5
2022-10-28T14:36:53.938Z,64
2022-10-28T14:52:10.885Z,66.5
2022-10-28T15:07:26.873Z,67.5
2022-10-28T15:22:42.843Z,68.5
2022-10-28T15:37:58.922Z,72.5
2022-10-28T15:53:15.759Z,78.5
2022-10-28T16:08:31.758Z,84
2022-10-28T16:23:48.703Z,88
2022-10-28T16:39:05.669Z,90.5
2022-10-28T16:54:22.623Z,90.5
2022-10-28T17:09:38.621Z,92
2022-10-28T17:24:54.611Z,92.5
2022-10-28T17:40:56.440Z,94.5
2022-10-28T17:55:29.591Z,97
2022-10-28T18:10:45.502Z,95.5
2022-10-28T18:26:01.438Z,98
2022-10-28T18:41:17.440Z,100
2022-10-28T18:56:34.546Z,100
2022-10-28T18:57:19.252Z,100
2022-10-28T19:11:52.396Z,100
2022-10-28T19:27:09.341Z,100
2022-10-28T19:42:25.344Z,100
2022-10-28T19:57:42.298Z,100
2022-10-28T20:12:58.369Z,100
2022-10-28T20:28:14.229Z,100
2022-10-28T20:43:31.178Z,100
2022-10-28T20:58:49.170Z,100
2022-10-28T21:14:06.120Z,100
2022-10-28T21:29:22.136Z,100
2022-10-28T21:44:38.072Z,100
2022-10-28T21:59:55.082Z,100
2022-10-28T22:15:11.007Z,100
2022-10-28T22:30:26.988Z,100
2022-10-28T22:45:43.948Z,100
2022-10-28T23:01:01.927Z,100
2022-10-28T23:16:18.893Z,100
2022-10-28T23:31:34.919Z,100
2022-10-28T23:46:50.831Z,100
